Time;durP1;ratioP1;P1;durP2;ratioP2;P2;SDS_P1;SDS_P2;PMS_P1;PMS_P2;Temp;Humidity;BMP_temperature;BMP_pressure;BME280_temperature;BME280_humidity;BME280_pressure;Samples;Min_cycle;Max_cycle;Signal;HPM_P1;HPM_P2
2024/03/30 12:11:44;;;;;;;1943.30;999.90;;;;;;;24.14;58.21;99158.13;215111;1288;637274;-88
2024/03/30 12:16:45;;;;;;;1999.90;999.90;;;;;;;24.18;60.07;99157.81;214713;1297;137856;-87
2024/03/30 12:21:45;;;;;;;1922.50;999.90;;;;;;;24.27;59.25;99157.10;214083;1291;139859;-85
2024/03/30 12:26:46;;;;;;;1999.90;999.90;;;;;;;24.19;58.36;99149.07;215283;1294;138496;-85
2024/03/30 12:31:47;;;;;;;1999.90;999.90;;;;;;;24.20;59.36;99144.13;214847;1291;139550;-85
2024/03/30 12:36:47;;;;;;;1999.90;999.90;;;;;;;24.27;58.93;99141.10;215989;1292;138123;-86
2024/03/30 12:41:48;;;;;;;1980.30;999.90;;;;;;;24.23;58.13;99134.70;214178;1291;139563;-87
2024/03/30 12:46:48;;;;;;;1999.90;999.90;;;;;;;24.20;55.77;99133.38;214608;1294;138054;-85
2024/03/30 12:51:48;;;;;;;1999.90;999.90;;;;;;;24.10;57.27;99126.14;214062;1294;139337;-86
2024/03/30 12:56:49;;;;;;;1999.90;999.90;;;;;;;24.07;56.17;99122.30;214646;1292;138080;-87
2024/03/30 13:01:50;;;;;;;1999.90;999.90;;;;;;;23.99;56.91;99119.15;214444;1294;139839;-86
2024/03/30 13:06:51;;;;;;;1999.90;999.90;;;;;;;23.94;56.08;99109.66;214949;1292;137994;-85
2024/03/30 13:11:52;;;;;;;1999.90;999.90;;;;;;;24.00;57.24;99100.77;214194;1291;140093;-84
2024/03/30 13:17:02;;;;;;;1999.90;999.90;;;;;;;23.97;57.31;99099.99;214648;1291;138560;-85
2024/03/30 13:22:10;;;;;;;1987.50;999.90;;;;;;;23.86;56.15;99095.85;214517;1292;139293;-85
2024/03/30 13:27:11;;;;;;;1999.90;999.90;;;;;;;23.71;57.08;99088.30;214837;1291;138186;-84
2024/03/30 13:32:11;;;;;;;1999.90;999.90;;;;;;;23.76;56.39;99079.36;214484;1292;140420;-85
2024/03/30 13:37:11;;;;;;;1991.40;999.90;;;;;;;23.79;56.22;99076.16;216918;1292;138091;-85
2024/03/30 13:42:12;;;;;;;1999.90;999.90;;;;;;;23.92;57.50;99070.46;214382;1291;140149;-84
2024/03/30 13:47:12;;;;;;;1999.90;999.90;;;;;;;23.93;56.61;99062.14;214701;1294;138267;-84
2024/03/30 13:52:13;;;;;;;1999.90;999.90;;;;;;;23.90;56.41;99050.16;214032;1291;139469;-84
2024/03/30 13:57:14;;;;;;;1999.90;999.90;;;;;;;23.86;56.44;99039.61;214697;1291;138175;-85
2024/03/30 14:02:14;;;;;;;1553.60;999.90;;;;;;;23.91;56.18;99039.59;214929;1291;139702;-86
2024/03/30 14:07:15;;;;;;;1392.20;999.90;;;;;;;23.87;54.46;99038.73;215703;1292;138176;-86
2024/03/30 14:12:16;;;;;;;1192.20;992.50;;;;;;;23.85;52.51;99035.39;214977;1292;139528;-84
2024/03/30 14:17:17;;;;;;;1466.10;992.40;;;;;;;23.75;51.99;99032.20;215100;1291;138763;-85
2024/03/30 14:22:18;;;;;;;1238.10;999.90;;;;;;;23.66;51.91;99026.60;214528;1292;139908;-85
2024/03/30 14:27:18;;;;;;;1064.10;944.40;;;;;;;23.61;51.28;99029.68;215217;1292;138176;-85
2024/03/30 14:32:19;;;;;;;1207.50;993.50;;;;;;;23.50;51.05;99025.46;214762;1294;139521;-84
2024/03/30 14:37:21;;;;;;;1071.50;958.60;;;;;;;23.47;50.73;99023.70;215289;1292;138036;-86
2024/03/30 14:42:21;;;;;;;1433.80;999.90;;;;;;;23.42;51.14;99023.85;215228;1292;139907;-86
2024/03/30 14:47:22;;;;;;;1053.90;945.50;;;;;;;23.44;51.54;99022.58;214416;1292;139211;-85
2024/03/30 14:52:22;;;;;;;1133.30;983.20;;;;;;;23.39;50.27;99022.45;213969;1292;139706;-85
2024/03/30 14:57:23;;;;;;;883.30;807.50;;;;;;;23.31;51.24;99016.46;214487;1289;138670;-85
2024/03/30 15:02:26;;;;;;;1138.40;983.80;;;;;;;23.24;51.45;99015.08;214077;1292;139985;-85
2024/03/30 15:07:27;;;;;;;1409.80;999.90;;;;;;;23.23;52.19;99017.66;214469;1293;138304;-86
2024/03/30 15:12:27;;;;;;;1268.90;991.00;;;;;;;23.12;51.99;99014.52;214017;1292;139527;-85
2024/03/30 15:17:27;;;;;;;1305.30;998.20;;;;;;;23.07;52.81;99012.43;214509;1292;138358;-85
2024/03/30 15:22:28;;;;;;;1112.40;975.10;;;;;;;23.01;52.24;99007.27;214184;1294;140237;-86
2024/03/30 15:27:29;;;;;;;1078.80;963.30;;;;;;;22.95;52.30;99006.29;214590;1292;138366;-86
2024/03/30 15:32:30;;;;;;;1112.20;974.60;;;;;;;22.89;51.72;99005.10;214132;1291;140491;-86
2024/03/30 15:37:31;;;;;;;1262.80;994.70;;;;;;;22.85;52.14;99003.20;214647;1292;138222;-86
2024/03/30 15:42:31;;;;;;;1111.00;980.60;;;;;;;22.78;52.74;98996.22;215453;1291;139589;-85
2024/03/30 15:47:32;;;;;;;1120.80;968.20;;;;;;;22.69;52.47;98989.08;214730;1294;138498;-84
2024/03/30 15:52:33;;;;;;;1021.30;912.40;;;;;;;22.57;52.14;98986.54;214062;1291;139613;-83
2024/03/30 15:57:33;;;;;;;1358.20;992.80;;;;;;;22.45;52.10;98984.14;214575;1291;138651;-84
2024/03/30 16:02:34;;;;;;;1188.30;981.20;;;;;;;22.37;52.94;98982.28;214268;1292;141078;-83
2024/03/30 16:07:34;;;;;;;1118.60;969.90;;;;;;;22.28;52.87;98983.65;214766;1294;138717;-83
2024/03/30 16:12:34;;;;;;;1088.40;965.30;;;;;;;22.14;53.21;98982.30;214304;1292;140310;-83
2024/03/30 16:17:35;;;;;;;1150.40;979.50;;;;;;;22.08;53.91;98980.42;214956;1292;138445;-85
2024/03/30 16:22:35;;;;;;;1048.80;937.80;;;;;;;22.03;53.98;98978.84;214246;1292;139511;-85
2024/03/30 16:27:36;;;;;;;1251.50;985.30;;;;;;;21.96;54.33;98980.72;214763;1292;138509;-83
2024/03/30 16:32:36;;;;;;;1250.50;993.90;;;;;;;21.90;54.98;98983.80;214175;1294;140132;-84
2024/03/30 16:37:37;;;;;;;1130.20;978.10;;;;;;;21.83;54.88;98986.99;214528;1292;138212;-83
2024/03/30 16:42:41;;;;;;;1113.00;970.40;;;;;;;21.74;55.40;98984.33;215167;1294;139583;-83
2024/03/30 16:47:53;;;;;;;1074.50;958.60;;;;;;;21.63;55.59;98993.00;215491;1292;139118;-83
2024/03/30 16:52:54;;;;;;;1089.40;950.40;;;;;;;21.51;55.92;98996.31;214048;1292;139626;-84
2024/03/30 16:57:55;;;;;;;1303.50;987.50;;;;;;;21.45;56.37;98993.86;214543;1289;138561;-84
2024/03/30 17:02:55;;;;;;;1206.70;986.40;;;;;;;21.33;56.59;98992.05;214327;1294;140299;-85
2024/03/30 17:07:55;;;;;;;1283.50;992.90;;;;;;;21.19;56.99;98985.15;214768;1293;97528;-86
2024/03/30 17:12:56;;;;;;;1373.80;998.00;;;;;;;21.06;58.00;98984.04;214351;1291;139851;-85
2024/03/30 17:17:56;;;;;;;1291.50;999.60;;;;;;;20.94;58.93;98984.94;214557;1292;139254;-86
2024/03/30 17:22:57;;;;;;;1274.10;992.70;;;;;;;20.80;59.76;98986.88;214232;1291;139547;-85
2024/03/30 17:27:57;;;;;;;1422.90;999.90;;;;;;;20.63;60.20;98989.52;214663;1292;138779;-85
2024/03/30 17:32:57;;;;;;;1455.40;999.90;;;;;;;20.48;61.57;98986.89;214343;1291;139717;-85
2024/03/30 17:37:59;;;;;;;1755.70;999.90;;;;;;;20.37;62.38;98989.20;214778;1291;104589;-85
2024/03/30 17:43:01;;;;;;;1555.50;999.90;;;;;;;20.25;62.65;99001.19;214114;1289;139668;-85
2024/03/30 17:48:06;;;;;;;1844.90;999.90;;;;;;;20.08;63.07;99003.80;215803;1289;96572;-89
2024/03/30 17:53:06;;;;;;;1708.50;999.90;;;;;;;19.90;64.05;99003.86;214426;1291;139304;-84
2024/03/30 17:58:07;;;;;;;1636.10;999.90;;;;;;;19.71;64.54;99009.20;214859;1291;138740;-86
2024/03/30 18:03:07;;;;;;;1451.50;999.70;;;;;;;19.55;65.57;99010.53;214018;1291;139882;-87
2024/03/30 18:08:07;;;;;;;1962.60;999.90;;;;;;;19.37;65.65;99006.91;214939;1291;96554;-86
2024/03/30 18:13:08;;;;;;;1474.00;999.90;;;;;;;19.23;66.97;99005.61;214281;1291;139399;-86
2024/03/30 18:18:08;;;;;;;1391.10;997.50;;;;;;;19.06;67.12;99010.13;214856;1291;138448;-87
2024/03/30 18:23:10;;;;;;;1540.70;999.90;;;;;;;18.90;68.01;99007.89;214337;1291;139449;-86
2024/03/30 18:28:10;;;;;;;1450.30;989.60;;;;;;;18.77;68.88;99002.45;215074;1291;138669;-86
2024/03/30 18:33:14;;;;;;;1390.50;995.40;;;;;;;18.62;69.06;99000.73;214439;1291;140053;-86
2024/03/30 18:38:14;;;;;;;1634.70;999.90;;;;;;;18.47;69.91;98996.61;215338;1291;108494;-86
2024/03/30 18:43:15;;;;;;;1511.60;986.20;;;;;;;18.37;70.44;98992.68;214262;1292;140305;-87
2024/03/30 18:48:15;;;;;;;1643.80;999.90;;;;;;;18.26;70.91;98985.87;216140;1291;138286;-87
2024/03/30 18:53:16;;;;;;;1864.80;999.90;;;;;;;18.17;71.51;98987.71;214185;1291;139728;-87
2024/03/30 18:58:16;;;;;;;1284.50;976.30;;;;;;;18.06;71.98;98991.60;214882;1292;139054;-86
2024/03/30 19:03:17;;;;;;;1447.40;992.60;;;;;;;17.94;72.07;98995.50;214018;1291;139335;-86
2024/03/30 19:08:18;;;;;;;1194.60;965.70;;;;;;;17.80;72.22;98995.30;214617;1292;96610;-86
2024/03/30 19:13:18;;;;;;;1223.70;966.50;;;;;;;17.66;72.53;98996.35;214241;1291;139651;-87
2024/03/30 19:18:18;;;;;;;1138.30;945.60;;;;;;;17.53;72.92;99002.66;214662;1291;138489;-87
2024/03/30 19:23:19;;;;;;;1106.70;938.40;;;;;;;17.42;73.45;99000.23;214356;1292;139514;-87
2024/03/30 19:28:19;;;;;;;925.30;831.20;;;;;;;17.32;73.70;98995.77;214740;1291;138428;-89
2024/03/30 19:33:21;;;;;;;1044.80;924.20;;;;;;;17.22;73.79;98996.80;214024;1291;139366;-87
2024/03/30 19:38:22;;;;;;;1269.50;958.40;;;;;;;17.12;74.04;98989.34;214826;1291;96102;-87
2024/03/30 19:43:22;;;;;;;888.50;807.10;;;;;;;17.01;73.85;98988.17;214623;1295;138578;-86
2024/03/30 19:59:09;;;;;;;791.80;723.20;;;;;;;16.72;73.91;98980.23;195469;1291;946881;-79
2024/03/30 20:04:10;;;;;;;758.80;698.10;;;;;;;16.66;73.69;98980.04;211121;1298;138448;-79
2024/03/30 20:09:10;;;;;;;670.70;620.80;;;;;;;16.62;73.40;98981.84;211360;1300;139908;-79
2024/03/30 20:14:12;;;;;;;678.90;627.10;;;;;;;16.55;73.26;98984.95;212889;1298;138460;-79
2024/03/30 20:19:13;;;;;;;666.70;616.90;;;;;;;16.49;73.04;98981.05;212145;1295;139316;-78
2024/03/30 20:24:13;;;;;;;634.00;585.50;;;;;;;16.42;72.93;98978.05;212794;1300;138166;-78
2024/03/30 20:29:14;;;;;;;482.40;448.30;;;;;;;16.36;72.52;98979.98;212530;1297;140060;-78
2024/03/30 20:34:14;;;;;;;457.80;425.50;;;;;;;16.35;71.82;98978.09;212946;1295;138159;-79
2024/03/30 20:39:14;;;;;;;349.30;326.50;;;;;;;16.33;71.32;98979.45;213099;1294;140220;-78
2024/03/30 20:44:15;;;;;;;401.10;373.30;;;;;;;16.31;70.85;98984.38;213777;1299;150714;-79
2024/03/30 20:49:15;;;;;;;336.70;315.60;;;;;;;16.30;70.43;98993.98;212351;1297;141004;-80
2024/03/30 20:54:16;;;;;;;335.30;312.20;;;;;;;16.29;70.36;98997.99;213034;1297;139354;-79
2024/03/30 21:11:51;;;;;;;352.30;328.60;;;;;;;16.14;70.71;98992.55;214376;1297;139632;-83
2024/03/30 21:17:52;;;;;;;308.10;285.80;;;;;;;16.07;70.99;98993.52;214865;1297;138411;-85
2024/03/30 21:23:56;;;;;;;349.40;326.60;;;;;;;15.99;71.22;98994.45;214582;1295;139362;-93
2024/03/30 21:29:56;;;;;;;398.10;371.30;;;;;;;15.90;71.75;98994.33;215179;1297;138765;-93
2024/03/30 21:35:57;;;;;;;379.30;353.60;;;;;;;15.81;72.05;98996.92;215793;1295;138228;-92
2024/03/30 21:41:56;;;;;;;;;;;;;;;;;;;;;
2024/03/30 21:47:27;;;;;;;;;;;;;;;;;;;;;
2024/03/30 21:59:38;;;;;;;545.10;506.30;;;;;;;15.32;75.80;98986.08;215133;1296;137615;-87
2024/03/30 22:05:39;;;;;;;508.90;473.70;;;;;;;15.19;76.74;98990.55;213828;1296;383021;-88
2024/03/30 22:11:41;;;;;;;467.10;434.60;;;;;;;15.06;76.61;98987.70;213288;1297;140076;-88
2024/03/30 22:17:42;;;;;;;363.20;338.00;;;;;;;14.93;77.60;98989.45;213888;1300;138852;-88
2024/03/30 22:23:43;;;;;;;386.70;360.60;;;;;;;14.77;77.90;98986.05;213500;1300;139607;-88
2024/03/30 22:29:45;;;;;;;450.90;419.50;;;;;;;14.65;78.84;98979.25;214381;1297;138205;-87
2024/03/30 22:35:46;;;;;;;457.70;423.70;;;;;;;14.53;79.26;98975.10;214466;1296;138449;-86
2024/03/30 22:41:47;;;;;;;236.60;219.40;;;;;;;14.39;79.45;98971.77;214626;1296;140649;-85
2024/03/30 22:47:49;;;;;;;351.70;326.70;;;;;;;14.25;80.64;98969.56;213933;1296;138948;-86
2024/03/30 22:53:50;;;;;;;259.60;241.50;;;;;;;14.12;81.21;98970.34;213478;1297;140252;-85
2024/03/30 22:59:51;;;;;;;285.20;263.60;;;;;;;14.00;81.45;98967.04;214370;1297;138968;-86
2024/03/30 23:05:50;;;;;;;;;;;;;;;;;;;;;
2024/03/30 23:11:56;;;;;;;284.00;262.70;;;;;;;13.75;83.34;98967.03;212708;1297;140562;-85
2024/03/30 23:17:57;;;;;;;201.00;186.20;;;;;;;13.64;83.30;98963.69;213269;1297;139432;-86
2024/03/30 23:23:58;;;;;;;234.20;218.00;;;;;;;13.50;83.74;98962.70;212700;1298;139940;-86
2024/03/30 23:30:00;;;;;;;349.00;322.60;;;;;;;13.39;84.42;98958.20;212713;1297;140383;-86
2024/03/30 23:36:02;;;;;;;313.00;291.30;;;;;;;13.29;85.18;98954.66;213861;1300;139046;-86
2024/03/30 23:42:03;;;;;;;222.60;206.60;;;;;;;13.23;85.45;98953.78;213332;1297;140675;-85
2024/03/30 23:48:04;;;;;;;277.20;256.10;;;;;;;13.12;86.18;98949.85;213953;1296;138918;-86
2024/03/30 23:54:05;;;;;;;247.90;229.60;;;;;;;13.04;86.85;98951.05;213725;1297;139966;-85
